sensor_id;sensor_type;location;lat;lon;timestamp;pressure;altitude;pressure_sealevel;temperature;humidity
64080;BME280;51042;49.696;10.808;2022-12-18T00:00:28;99818.88;;;-13.25;97.55
64080;BME280;51042;49.696;10.808;2022-12-18T00:02:55;99814.88;;;-13.27;97.37
64080;BME280;51042;49.696;10.808;2022-12-18T00:05:20;99805.59;;;-13.30;98.33
64080;BME280;51042;49.696;10.808;2022-12-18T00:07:45;99803.44;;;-13.33;96.93
64080;BME280;51042;49.696;10.808;2022-12-18T00:10:10;99798.34;;;-13.39;97.96
64080;BME280;51042;49.696;10.808;2022-12-18T00:12:35;99800.44;;;-13.41;96.81
64080;BME280;51042;49.696;10.808;2022-12-18T00:15:00;99802.44;;;-13.48;97.27
64080;BME280;51042;49.696;10.808;2022-12-18T00:17:26;99807.97;;;-13.50;97.16
64080;BME280;51042;49.696;10.808;2022-12-18T00:19:51;99807.66;;;-13.53;96.88
64080;BME280;51042;49.696;10.808;2022-12-18T00:22:16;99808.94;;;-13.56;97.48
64080;BME280;51042;49.696;10.808;2022-12-18T00:24:41;99807.50;;;-13.63;96.97
64080;BME280;51042;49.696;10.808;2022-12-18T00:27:06;99814.31;;;-13.68;97.17
64080;BME280;51042;49.696;10.808;2022-12-18T00:29:31;99813.75;;;-13.70;97.40
64080;BME280;51042;49.696;10.808;2022-12-18T00:31:57;99810.66;;;-13.67;97.58
64080;BME280;51042;49.696;10.808;2022-12-18T00:34:22;99804.88;;;-13.63;97.12
64080;BME280;51042;49.696;10.808;2022-12-18T00:36:47;99799.84;;;-13.65;97.60
64080;BME280;51042;49.696;10.808;2022-12-18T00:39:13;99798.88;;;-13.76;95.99
64080;BME280;51042;49.696;10.808;2022-12-18T00:41:38;99806.72;;;-13.81;96.86
64080;BME280;51042;49.696;10.808;2022-12-18T00:44:21;99802.50;;;-13.82;96.68
64080;BME280;51042;49.696;10.808;2022-12-18T00:46:47;99798.53;;;-13.84;96.23
64080;BME280;51042;49.696;10.808;2022-12-18T00:49:13;99789.81;;;-13.85;97.30
64080;BME280;51042;49.696;10.808;2022-12-18T00:51:38;99791.56;;;-13.90;97.39
64080;BME280;51042;49.696;10.808;2022-12-18T00:54:04;99792.91;;;-13.88;96.79
64080;BME280;51042;49.696;10.808;2022-12-18T00:56:29;99806.09;;;-13.88;97.04
64080;BME280;51042;49.696;10.808;2022-12-18T00:58:55;99805.41;;;-13.83;97.68
64080;BME280;51042;49.696;10.808;2022-12-18T01:01:20;99812.28;;;-13.82;97.69
64080;BME280;51042;49.696;10.808;2022-12-18T01:03:45;99827.59;;;-13.79;97.31
64080;BME280;51042;49.696;10.808;2022-12-18T01:06:12;99824.81;;;-13.73;96.37
64080;BME280;51042;49.696;10.808;2022-12-18T01:08:37;99825.44;;;-13.66;96.19
64080;BME280;51042;49.696;10.808;2022-12-18T01:11:10;99828.03;;;-13.49;96.61
64080;BME280;51042;49.696;10.808;2022-12-18T01:13:35;99826.09;;;-13.37;96.09
64080;BME280;51042;49.696;10.808;2022-12-18T01:16:01;99835.00;;;-13.21;96.04
64080;BME280;51042;49.696;10.808;2022-12-18T01:18:26;99831.22;;;-13.03;96.23
64080;BME280;51042;49.696;10.808;2022-12-18T01:20:51;99834.06;;;-12.88;97.37
64080;BME280;51042;49.696;10.808;2022-12-18T01:23:16;99824.97;;;-12.75;98.12
64080;BME280;51042;49.696;10.808;2022-12-18T01:25:41;99826.25;;;-12.78;100.00
64080;BME280;51042;49.696;10.808;2022-12-18T01:28:07;99834.75;;;-12.76;100.00
64080;BME280;51042;49.696;10.808;2022-12-18T01:30:32;99829.69;;;-12.77;100.00
64080;BME280;51042;49.696;10.808;2022-12-18T01:32:57;99842.91;;;-12.77;100.00
64080;BME280;51042;49.696;10.808;2022-12-18T01:35:22;99841.53;;;-12.80;100.00
64080;BME280;51042;49.696;10.808;2022-12-18T01:37:47;99850.59;;;-12.76;100.00
64080;BME280;51042;49.696;10.808;2022-12-18T01:40:12;99851.19;;;-12.69;100.00
64080;BME280;51042;49.696;10.808;2022-12-18T01:42:38;99857.25;;;-12.68;100.00
64080;BME280;51042;49.696;10.808;2022-12-18T01:45:20;99857.59;;;-12.65;100.00
64080;BME280;51042;49.696;10.808;2022-12-18T01:47:54;99858.19;;;-12.79;100.00
64080;BME280;51042;49.696;10.808;2022-12-18T01:50:22;99858.75;;;-12.77;100.00
64080;BME280;51042;49.696;10.808;2022-12-18T01:52:50;99860.84;;;-12.79;99.41
64080;BME280;51042;49.696;10.808;2022-12-18T01:55:16;99848.88;;;-12.87;97.34
64080;BME280;51042;49.696;10.808;2022-12-18T01:57:42;99846.47;;;-12.89;97.16
64080;BME280;51042;49.696;10.808;2022-12-18T02:00:12;99851.53;;;-12.87;96.28
64080;BME280;51042;49.696;10.808;2022-12-18T02:02:38;99853.38;;;-12.88;96.95
64080;BME280;51042;49.696;10.808;2022-12-18T02:05:04;99856.19;;;-12.94;95.13
64080;BME280;51042;49.696;10.808;2022-12-18T02:07:36;99854.53;;;-13.00;94.57
64080;BME280;51042;49.696;10.808;2022-12-18T02:17:37;99855.28;;;-13.05;93.07
64080;BME280;51042;49.696;10.808;2022-12-18T02:20:12;99842.78;;;-13.09;94.01
64080;BME280;51042;49.696;10.808;2022-12-18T02:22:45;99839.06;;;-13.13;93.13
64080;BME280;51042;49.696;10.808;2022-12-18T02:27:39;99840.13;;;-13.14;95.54
64080;BME280;51042;49.696;10.808;2022-12-18T02:30:05;99847.03;;;-13.08;96.40
64080;BME280;51042;49.696;10.808;2022-12-18T02:32:31;99854.94;;;-13.08;97.69
64080;BME280;51042;49.696;10.808;2022-12-18T02:34:59;99861.81;;;-13.12;98.46
64080;BME280;51042;49.696;10.808;2022-12-18T02:37:26;99856.53;;;-13.12;98.05
64080;BME280;51042;49.696;10.808;2022-12-18T02:39:53;99854.91;;;-13.13;98.39
64080;BME280;51042;49.696;10.808;2022-12-18T02:42:19;99855.66;;;-13.18;97.46
64080;BME280;51042;49.696;10.808;2022-12-18T02:44:45;99860.31;;;-13.25;96.81
64080;BME280;51042;49.696;10.808;2022-12-18T02:47:12;99851.19;;;-13.34;96.40
64080;BME280;51042;49.696;10.808;2022-12-18T02:57:16;99872.94;;;-13.27;97.91
64080;BME280;51042;49.696;10.808;2022-12-18T02:59:49;99868.34;;;-13.37;98.58
64080;BME280;51042;49.696;10.808;2022-12-18T03:05:09;99850.13;;;-13.55;100.00
64080;BME280;51042;49.696;10.808;2022-12-18T03:07:38;99843.41;;;-13.62;100.00
64080;BME280;51042;49.696;10.808;2022-12-18T03:10:05;99856.47;;;-13.73;100.00
64080;BME280;51042;49.696;10.808;2022-12-18T03:12:33;99864.06;;;-13.76;100.00
64080;BME280;51042;49.696;10.808;2022-12-18T03:15:00;99865.25;;;-13.84;100.00
64080;BME280;51042;49.696;10.808;2022-12-18T03:17:28;99872.28;;;-13.89;100.00
64080;BME280;51042;49.696;10.808;2022-12-18T03:19:56;99877.22;;;-13.93;100.00
64080;BME280;51042;49.696;10.808;2022-12-18T03:22:23;99872.75;;;-13.92;100.00
64080;BME280;51042;49.696;10.808;2022-12-18T03:24:48;99872.22;;;-13.94;100.00
64080;BME280;51042;49.696;10.808;2022-12-18T03:27:14;99875.38;;;-13.92;100.00
64080;BME280;51042;49.696;10.808;2022-12-18T03:29:43;99879.16;;;-13.88;100.00
64080;BME280;51042;49.696;10.808;2022-12-18T03:32:11;99878.75;;;-13.80;100.00
64080;BME280;51042;49.696;10.808;2022-12-18T03:34:39;99887.88;;;-13.71;100.00
64080;BME280;51042;49.696;10.808;2022-12-18T03:37:06;99887.22;;;-13.61;100.00
64080;BME280;51042;49.696;10.808;2022-12-18T03:39:31;99898.50;;;-13.49;99.22
64080;BME280;51042;49.696;10.808;2022-12-18T03:42:15;99900.09;;;-13.48;98.21
64080;BME280;51042;49.696;10.808;2022-12-18T03:44:51;99898.97;;;-13.36;96.81
64080;BME280;51042;49.696;10.808;2022-12-18T03:47:25;99882.81;;;-13.39;96.61
64080;BME280;51042;49.696;10.808;2022-12-18T03:52:38;99889.13;;;-13.40;93.91
64080;BME280;51042;49.696;10.808;2022-12-18T03:55:05;99889.53;;;-13.32;95.29
64080;BME280;51042;49.696;10.808;2022-12-18T03:57:32;99884.13;;;-13.20;95.79
64080;BME280;51042;49.696;10.808;2022-12-18T04:00:05;99891.31;;;-13.15;94.32
64080;BME280;51042;49.696;10.808;2022-12-18T04:02:31;99896.63;;;-13.10;94.83
64080;BME280;51042;49.696;10.808;2022-12-18T04:04:57;99893.28;;;-13.06;95.65
64080;BME280;51042;49.696;10.808;2022-12-18T04:07:24;99893.09;;;-12.99;95.62
64080;BME280;51042;49.696;10.808;2022-12-18T04:09:49;99898.75;;;-12.91;96.42
64080;BME280;51042;49.696;10.808;2022-12-18T04:12:15;99890.41;;;-12.83;95.56
64080;BME280;51042;49.696;10.808;2022-12-18T04:14:41;99895.25;;;-12.74;96.02
64080;BME280;51042;49.696;10.808;2022-12-18T04:17:06;99901.72;;;-12.65;95.69
64080;BME280;51042;49.696;10.808;2022-12-18T04:19:31;99907.63;;;-12.58;96.64
64080;BME280;51042;49.696;10.808;2022-12-18T04:21:56;99901.59;;;-12.54;96.37
64080;BME280;51042;49.696;10.808;2022-12-18T04:24:21;99904.78;;;-12.52;97.71
64080;BME280;51042;49.696;10.808;2022-12-18T04:26:47;99908.09;;;-12.39;98.34
64080;BME280;51042;49.696;10.808;2022-12-18T04:29:12;99903.16;;;-12.31;98.76
64080;BME280;51042;49.696;10.808;2022-12-18T04:31:37;99900.81;;;-12.27;98.87
64080;BME280;51042;49.696;10.808;2022-12-18T04:34:02;99901.06;;;-12.29;99.33
64080;BME280;51042;49.696;10.808;2022-12-18T04:36:27;99892.91;;;-12.27;100.00
64080;BME280;51042;49.696;10.808;2022-12-18T04:38:53;99910.94;;;-12.19;100.00
64080;BME280;51042;49.696;10.808;2022-12-18T04:41:18;99906.75;;;-12.15;100.00
64080;BME280;51042;49.696;10.808;2022-12-18T04:43:43;99900.78;;;-12.06;100.00
64080;BME280;51042;49.696;10.808;2022-12-18T04:46:08;99891.22;;;-12.07;100.00
64080;BME280;51042;49.696;10.808;2022-12-18T04:48:34;99892.06;;;-12.01;100.00
64080;BME280;51042;49.696;10.808;2022-12-18T04:50:59;99881.56;;;-11.91;100.00
64080;BME280;51042;49.696;10.808;2022-12-18T04:53:24;99881.63;;;-11.86;100.00
64080;BME280;51042;49.696;10.808;2022-12-18T04:55:50;99899.88;;;-11.84;100.00
64080;BME280;51042;49.696;10.808;2022-12-18T04:58:15;99897.03;;;-11.73;100.00
64080;BME280;51042;49.696;10.808;2022-12-18T05:00:40;99893.44;;;-11.62;100.00
64080;BME280;51042;49.696;10.808;2022-12-18T05:03:05;99889.50;;;-11.59;100.00
64080;BME280;51042;49.696;10.808;2022-12-18T05:05:31;99878.66;;;-11.58;100.00
64080;BME280;51042;49.696;10.808;2022-12-18T05:07:56;99881.06;;;-11.56;100.00
64080;BME280;51042;49.696;10.808;2022-12-18T05:10:21;99893.00;;;-11.48;100.00
64080;BME280;51042;49.696;10.808;2022-12-18T05:12:46;99892.53;;;-11.40;100.00
64080;BME280;51042;49.696;10.808;2022-12-18T05:15:26;99913.25;;;-11.32;100.00
64080;BME280;51042;49.696;10.808;2022-12-18T05:17:51;99910.38;;;-11.26;100.00
64080;BME280;51042;49.696;10.808;2022-12-18T05:20:16;99911.72;;;-11.23;100.00
64080;BME280;51042;49.696;10.808;2022-12-18T05:22:43;99909.34;;;-11.20;100.00
64080;BME280;51042;49.696;10.808;2022-12-18T05:25:08;99917.63;;;-11.11;100.00
64080;BME280;51042;49.696;10.808;2022-12-18T05:27:33;99909.72;;;-11.01;100.00
64080;BME280;51042;49.696;10.808;2022-12-18T05:29:58;99909.50;;;-10.94;100.00
64080;BME280;51042;49.696;10.808;2022-12-18T05:32:24;99908.72;;;-10.90;100.00
64080;BME280;51042;49.696;10.808;2022-12-18T05:34:49;99905.03;;;-10.84;100.00
64080;BME280;51042;49.696;10.808;2022-12-18T05:37:14;99912.28;;;-10.74;100.00
64080;BME280;51042;49.696;10.808;2022-12-18T05:39:39;99908.06;;;-10.65;100.00
64080;BME280;51042;49.696;10.808;2022-12-18T05:42:04;99908.63;;;-10.58;100.00
64080;BME280;51042;49.696;10.808;2022-12-18T05:44:30;99905.19;;;-10.48;100.00
64080;BME280;51042;49.696;10.808;2022-12-18T05:46:55;99906.31;;;-10.39;100.00
64080;BME280;51042;49.696;10.808;2022-12-18T05:49:20;99905.75;;;-10.36;100.00
64080;BME280;51042;49.696;10.808;2022-12-18T05:51:45;99910.81;;;-10.29;100.00
64080;BME280;51042;49.696;10.808;2022-12-18T05:54:10;99900.50;;;-10.26;100.00
64080;BME280;51042;49.696;10.808;2022-12-18T05:56:36;99897.06;;;-10.21;100.00
64080;BME280;51042;49.696;10.808;2022-12-18T05:59:01;99897.88;;;-10.21;100.00
64080;BME280;51042;49.696;10.808;2022-12-18T06:01:26;99905.81;;;-10.21;100.00
64080;BME280;51042;49.696;10.808;2022-12-18T06:03:51;99905.53;;;-10.24;100.00
64080;BME280;51042;49.696;10.808;2022-12-18T06:06:18;99923.28;;;-10.30;100.00
64080;BME280;51042;49.696;10.808;2022-12-18T06:08:43;99922.00;;;-10.27;100.00
64080;BME280;51042;49.696;10.808;2022-12-18T06:11:09;99927.56;;;-10.24;100.00
64080;BME280;51042;49.696;10.808;2022-12-18T06:13:34;99925.44;;;-10.22;100.00
64080;BME280;51042;49.696;10.808;2022-12-18T06:16:01;99920.69;;;-10.20;100.00
64080;BME280;51042;49.696;10.808;2022-12-18T06:18:26;99918.31;;;-10.16;100.00
64080;BME280;51042;49.696;10.808;2022-12-18T06:20:55;99927.03;;;-10.16;100.00
64080;BME280;51042;49.696;10.808;2022-12-18T06:23:20;99921.72;;;-10.16;100.00
64080;BME280;51042;49.696;10.808;2022-12-18T06:25:46;99912.44;;;-10.13;100.00
64080;BME280;51042;49.696;10.808;2022-12-18T06:28:11;99925.72;;;-10.08;100.00
64080;BME280;51042;49.696;10.808;2022-12-18T06:30:36;99926.78;;;-10.04;100.00
64080;BME280;51042;49.696;10.808;2022-12-18T06:33:01;99919.88;;;-10.00;100.00
64080;BME280;51042;49.696;10.808;2022-12-18T06:35:26;99927.59;;;-9.94;100.00
64080;BME280;51042;49.696;10.808;2022-12-18T06:37:52;99920.72;;;-9.89;100.00
64080;BME280;51042;49.696;10.808;2022-12-18T06:40:17;99934.81;;;-9.84;100.00
64080;BME280;51042;49.696;10.808;2022-12-18T06:42:42;99943.56;;;-9.78;100.00
64080;BME280;51042;49.696;10.808;2022-12-18T06:45:07;99941.97;;;-9.79;100.00
64080;BME280;51042;49.696;10.808;2022-12-18T06:47:32;99944.63;;;-9.79;100.00
64080;BME280;51042;49.696;10.808;2022-12-18T06:49:58;99949.69;;;-9.78;100.00
64080;BME280;51042;49.696;10.808;2022-12-18T06:52:23;99947.81;;;-9.77;100.00
64080;BME280;51042;49.696;10.808;2022-12-18T06:54:48;99952.34;;;-9.73;100.00
64080;BME280;51042;49.696;10.808;2022-12-18T06:57:13;99957.41;;;-9.71;100.00
64080;BME280;51042;49.696;10.808;2022-12-18T06:59:38;99952.09;;;-9.66;100.00
64080;BME280;51042;49.696;10.808;2022-12-18T07:02:04;99949.97;;;-9.59;100.00
64080;BME280;51042;49.696;10.808;2022-12-18T07:04:29;99934.03;;;-9.54;100.00
64080;BME280;51042;49.696;10.808;2022-12-18T07:06:54;99927.63;;;-9.53;100.00
64080;BME280;51042;49.696;10.808;2022-12-18T07:09:20;99932.69;;;-9.52;100.00
64080;BME280;51042;49.696;10.808;2022-12-18T07:11:45;99924.47;;;-9.50;100.00
64080;BME280;51042;49.696;10.808;2022-12-18T07:14:10;99931.38;;;-9.44;100.00
64080;BME280;51042;49.696;10.808;2022-12-18T07:16:35;99921.00;;;-9.40;100.00
64080;BME280;51042;49.696;10.808;2022-12-18T07:19:00;99927.09;;;-9.35;100.00
64080;BME280;51042;49.696;10.808;2022-12-18T07:21:25;99925.78;;;-9.27;100.00
64080;BME280;51042;49.696;10.808;2022-12-18T07:23:51;99929.47;;;-9.23;100.00
64080;BME280;51042;49.696;10.808;2022-12-18T07:26:17;99931.88;;;-9.17;100.00
64080;BME280;51042;49.696;10.808;2022-12-18T07:28:43;99931.09;;;-9.12;100.00
64080;BME280;51042;49.696;10.808;2022-12-18T07:31:13;99936.91;;;-9.05;100.00
64080;BME280;51042;49.696;10.808;2022-12-18T07:33:39;99943.00;;;-8.99;100.00
64080;BME280;51042;49.696;10.808;2022-12-18T07:36:06;99948.59;;;-8.91;100.00
64080;BME280;51042;49.696;10.808;2022-12-18T07:38:31;99954.69;;;-8.80;100.00
64080;BME280;51042;49.696;10.808;2022-12-18T07:41:00;99950.94;;;-8.69;100.00
64080;BME280;51042;49.696;10.808;2022-12-18T07:43:26;99956.25;;;-8.59;100.00
64080;BME280;51042;49.696;10.808;2022-12-18T07:45:51;99964.16;;;-8.44;100.00
64080;BME280;51042;49.696;10.808;2022-12-18T07:48:16;99961.47;;;-8.39;100.00
64080;BME280;51042;49.696;10.808;2022-12-18T07:50:41;99969.47;;;-8.39;100.00
64080;BME280;51042;49.696;10.808;2022-12-18T07:53:06;99977.22;;;-8.47;100.00
64080;BME280;51042;49.696;10.808;2022-12-18T07:55:32;99978.84;;;-8.61;100.00
64080;BME280;51042;49.696;10.808;2022-12-18T07:58:00;99979.91;;;-8.62;100.00
64080;BME280;51042;49.696;10.808;2022-12-18T08:00:25;99975.94;;;-8.65;100.00
64080;BME280;51042;49.696;10.808;2022-12-18T08:02:50;99973.28;;;-8.70;100.00
64080;BME280;51042;49.696;10.808;2022-12-18T08:05:15;99974.06;;;-8.70;100.00
64080;BME280;51042;49.696;10.808;2022-12-18T08:07:40;99977.03;;;-8.71;100.00
64080;BME280;51042;49.696;10.808;2022-12-18T08:10:06;99987.38;;;-8.70;100.00
64080;BME280;51042;49.696;10.808;2022-12-18T08:12:31;99985.53;;;-8.64;100.00
64080;BME280;51042;49.696;10.808;2022-12-18T08:14:56;99986.31;;;-8.69;100.00
64080;BME280;51042;49.696;10.808;2022-12-18T08:17:21;99982.59;;;-8.68;100.00
64080;BME280;51042;49.696;10.808;2022-12-18T08:19:47;99982.56;;;-8.62;100.00
64080;BME280;51042;49.696;10.808;2022-12-18T08:22:12;99973.78;;;-8.63;100.00
64080;BME280;51042;49.696;10.808;2022-12-18T08:24:37;99973.81;;;-8.58;100.00
64080;BME280;51042;49.696;10.808;2022-12-18T08:27:02;99974.03;;;-8.49;100.00
64080;BME280;51042;49.696;10.808;2022-12-18T08:29:27;99976.16;;;-8.46;100.00
64080;BME280;51042;49.696;10.808;2022-12-18T08:31:53;99978.00;;;-8.42;100.00
64080;BME280;51042;49.696;10.808;2022-12-18T08:34:18;99977.16;;;-8.32;100.00
64080;BME280;51042;49.696;10.808;2022-12-18T08:36:43;99986.75;;;-8.31;100.00
64080;BME280;51042;49.696;10.808;2022-12-18T08:39:08;99988.81;;;-8.28;100.00
64080;BME280;51042;49.696;10.808;2022-12-18T08:41:33;99982.41;;;-8.22;100.00
64080;BME280;51042;49.696;10.808;2022-12-18T08:43:58;99986.91;;;-8.12;100.00
64080;BME280;51042;49.696;10.808;2022-12-18T08:46:42;99982.09;;;-8.05;100.00
64080;BME280;51042;49.696;10.808;2022-12-18T08:49:08;99981.81;;;-8.09;100.00
64080;BME280;51042;49.696;10.808;2022-12-18T08:51:34;99979.69;;;-8.07;100.00
64080;BME280;51042;49.696;10.808;2022-12-18T08:53:59;99976.22;;;-8.07;100.00
64080;BME280;51042;49.696;10.808;2022-12-18T08:56:24;99975.97;;;-8.06;100.00
64080;BME280;51042;49.696;10.808;2022-12-18T08:58:53;99973.00;;;-7.99;100.00
64080;BME280;51042;49.696;10.808;2022-12-18T09:01:18;99974.88;;;-8.00;100.00
64080;BME280;51042;49.696;10.808;2022-12-18T09:03:43;99972.41;;;-7.91;100.00
64080;BME280;51042;49.696;10.808;2022-12-18T09:06:09;99961.72;;;-7.86;100.00
64080;BME280;51042;49.696;10.808;2022-12-18T09:08:34;99966.56;;;-7.88;100.00
64080;BME280;51042;49.696;10.808;2022-12-18T09:10:59;99963.34;;;-7.90;100.00
64080;BME280;51042;49.696;10.808;2022-12-18T09:13:24;99968.41;;;-7.89;100.00
64080;BME280;51042;49.696;10.808;2022-12-18T09:15:51;99970.25;;;-7.84;100.00
64080;BME280;51042;49.696;10.808;2022-12-18T09:18:17;99966.75;;;-7.79;100.00
64080;BME280;51042;49.696;10.808;2022-12-18T09:20:42;99969.72;;;-7.81;100.00
64080;BME280;51042;49.696;10.808;2022-12-18T09:23:08;99964.31;;;-7.71;100.00
64080;BME280;51042;49.696;10.808;2022-12-18T09:25:34;99962.13;;;-7.64;100.00
64080;BME280;51042;49.696;10.808;2022-12-18T09:28:01;99959.44;;;-7.59;100.00
64080;BME280;51042;49.696;10.808;2022-12-18T09:30:26;99954.16;;;-7.64;100.00
64080;BME280;51042;49.696;10.808;2022-12-18T09:32:52;99953.25;;;-7.54;100.00
64080;BME280;51042;49.696;10.808;2022-12-18T09:35:17;99944.16;;;-7.48;100.00
64080;BME280;51042;49.696;10.808;2022-12-18T09:37:42;99945.19;;;-7.44;100.00
64080;BME280;51042;49.696;10.808;2022-12-18T09:40:12;99944.81;;;-7.27;100.00
64080;BME280;51042;49.696;10.808;2022-12-18T09:42:38;99946.59;;;-7.18;100.00
64080;BME280;51042;49.696;10.808;2022-12-18T09:45:04;99935.06;;;-7.13;100.00
64080;BME280;51042;49.696;10.808;2022-12-18T09:47:33;99941.69;;;-7.06;100.00
64080;BME280;51042;49.696;10.808;2022-12-18T09:50:13;99937.94;;;-7.05;100.00
64080;BME280;51042;49.696;10.808;2022-12-18T09:52:45;99946.69;;;-6.99;100.00
64080;BME280;51042;49.696;10.808;2022-12-18T09:55:16;99942.88;;;-6.93;100.00
64080;BME280;51042;49.696;10.808;2022-12-18T09:57:47;99940.31;;;-6.74;100.00
64080;BME280;51042;49.696;10.808;2022-12-18T10:00:17;99939.28;;;-6.54;100.00
64080;BME280;51042;49.696;10.808;2022-12-18T10:02:43;99946.31;;;-6.40;100.00
64080;BME280;51042;49.696;10.808;2022-12-18T10:05:13;99935.34;;;-6.14;100.00
64080;BME280;51042;49.696;10.808;2022-12-18T10:10:27;99924.56;;;-5.72;100.00
64080;BME280;51042;49.696;10.808;2022-12-18T10:20:42;99905.31;;;-5.23;100.00
64080;BME280;51042;49.696;10.808;2022-12-18T10:23:45;99915.44;;;-5.20;100.00
64080;BME280;51042;49.696;10.808;2022-12-18T10:28:25;99916.44;;;-5.16;100.00
64080;BME280;51042;49.696;10.808;2022-12-18T10:30:51;99910.59;;;-5.04;100.00
64080;BME280;51042;49.696;10.808;2022-12-18T10:33:18;99910.91;;;-4.92;100.00
64080;BME280;51042;49.696;10.808;2022-12-18T10:35:43;99907.47;;;-4.79;99.43
64080;BME280;51042;49.696;10.808;2022-12-18T10:40:51;99915.09;;;-4.86;100.00
64080;BME280;51042;49.696;10.808;2022-12-18T10:43:19;99926.31;;;-4.84;99.83
64080;BME280;51042;49.696;10.808;2022-12-18T10:45:57;99918.28;;;-4.70;98.86
64080;BME280;51042;49.696;10.808;2022-12-18T10:48:23;99910.53;;;-4.58;98.37
64080;BME280;51042;49.696;10.808;2022-12-18T10:50:49;99908.84;;;-4.40;98.35
64080;BME280;51042;49.696;10.808;2022-12-18T10:53:22;99920.47;;;-4.45;96.62
64080;BME280;51042;49.696;10.808;2022-12-18T10:55:48;99932.88;;;-4.49;97.20
64080;BME280;51042;49.696;10.808;2022-12-18T10:58:28;99928.50;;;-4.31;96.97
64080;BME280;51042;49.696;10.808;2022-12-18T11:06:11;99911.75;;;-4.37;94.98
64080;BME280;51042;49.696;10.808;2022-12-18T11:08:37;99914.81;;;-4.30;95.11
64080;BME280;51042;49.696;10.808;2022-12-18T11:11:04;99899.59;;;-4.07;94.53
64080;BME280;51042;49.696;10.808;2022-12-18T11:13:31;99907.22;;;-4.00;92.23
64080;BME280;51042;49.696;10.808;2022-12-18T11:15:57;99896.94;;;-3.62;91.58
64080;BME280;51042;49.696;10.808;2022-12-18T11:18:55;99895.84;;;-3.61;89.43
64080;BME280;51042;49.696;10.808;2022-12-18T11:21:13;99886.50;;;-3.19;90.58
64080;BME280;51042;49.696;10.808;2022-12-18T11:23:46;99887.75;;;-2.55;87.35
64080;BME280;51042;49.696;10.808;2022-12-18T11:26:13;99888.19;;;-1.96;84.69
64080;BME280;51042;49.696;10.808;2022-12-18T11:28:52;99888.97;;;-1.53;82.94
64080;BME280;51042;49.696;10.808;2022-12-18T11:31:31;99880.25;;;-2.01;82.47
64080;BME280;51042;49.696;10.808;2022-12-18T11:36:22;99871.91;;;-1.83;81.66
64080;BME280;51042;49.696;10.808;2022-12-18T11:38:48;99874.09;;;-1.59;81.08
64080;BME280;51042;49.696;10.808;2022-12-18T11:43:44;99869.06;;;-1.69;80.40
64080;BME280;51042;49.696;10.808;2022-12-18T11:46:17;99867.06;;;-2.37;82.00
64080;BME280;51042;49.696;10.808;2022-12-18T11:48:58;99863.28;;;-2.93;84.63
64080;BME280;51042;49.696;10.808;2022-12-18T11:51:32;99849.72;;;-3.19;86.16
64080;BME280;51042;49.696;10.808;2022-12-18T11:53:58;99857.34;;;-3.12;87.01
64080;BME280;51042;49.696;10.808;2022-12-18T11:56:31;99862.28;;;-2.97;86.11
64080;BME280;51042;49.696;10.808;2022-12-18T11:59:01;99867.38;;;-2.96;85.65
64080;BME280;51042;49.696;10.808;2022-12-18T12:06:49;99857.28;;;-3.21;84.95
64080;BME280;51042;49.696;10.808;2022-12-18T12:09:33;99860.19;;;-3.09;84.74
64080;BME280;51042;49.696;10.808;2022-12-18T12:14:46;99847.78;;;-2.96;83.82
64080;BME280;51042;49.696;10.808;2022-12-18T12:17:25;99834.84;;;-2.85;84.54
64080;BME280;51042;49.696;10.808;2022-12-18T12:22:48;99830.81;;;-2.74;82.84
64080;BME280;51042;49.696;10.808;2022-12-18T12:27:51;99831.25;;;-2.81;83.98
64080;BME280;51042;49.696;10.808;2022-12-18T12:30:54;99831.63;;;-2.65;84.07
64080;BME280;51042;49.696;10.808;2022-12-18T12:40:39;99817.91;;;-2.47;82.74
64080;BME280;51042;49.696;10.808;2022-12-18T12:48:16;99823.59;;;-2.48;80.86
64080;BME280;51042;49.696;10.808;2022-12-18T12:50:42;99813.16;;;-2.50;81.91
64080;BME280;51042;49.696;10.808;2022-12-18T12:53:08;99817.28;;;-2.35;82.18
64080;BME280;51042;49.696;10.808;2022-12-18T12:55:33;99817.28;;;-2.43;81.25
64080;BME280;51042;49.696;10.808;2022-12-18T12:58:01;99815.16;;;-2.72;81.98
64080;BME280;51042;49.696;10.808;2022-12-18T13:00:36;99816.91;;;-2.68;82.76
64080;BME280;51042;49.696;10.808;2022-12-18T13:03:08;99820.53;;;-2.72;81.86
64080;BME280;51042;49.696;10.808;2022-12-18T13:05:41;99813.38;;;-2.85;82.51
64080;BME280;51042;49.696;10.808;2022-12-18T13:08:10;99804.06;;;-2.88;83.36
64080;BME280;51042;49.696;10.808;2022-12-18T13:10:36;99800.88;;;-2.99;83.21
64080;BME280;51042;49.696;10.808;2022-12-18T13:13:03;99799.88;;;-3.03;84.42
64080;BME280;51042;49.696;10.808;2022-12-18T13:15:33;99793.88;;;-3.08;84.03
64080;BME280;51042;49.696;10.808;2022-12-18T13:20:35;99797.44;;;-3.21;85.42
64080;BME280;51042;49.696;10.808;2022-12-18T13:23:01;99794.53;;;-3.03;85.14
64080;BME280;51042;49.696;10.808;2022-12-18T13:25:44;99796.41;;;-3.03;85.14
64080;BME280;51042;49.696;10.808;2022-12-18T13:28:10;99805.03;;;-3.23;84.81
64080;BME280;51042;49.696;10.808;2022-12-18T13:30:46;99811.63;;;-3.30;85.94
64080;BME280;51042;49.696;10.808;2022-12-18T13:40:56;99794.69;;;-3.39;86.46
64080;BME280;51042;49.696;10.808;2022-12-18T13:45:58;99789.00;;;-3.37;86.48
64080;BME280;51042;49.696;10.808;2022-12-18T13:48:25;99773.88;;;-3.33;87.25
64080;BME280;51042;49.696;10.808;2022-12-18T13:51:12;99774.38;;;-3.31;87.20
64080;BME280;51042;49.696;10.808;2022-12-18T13:53:43;99762.84;;;-3.32;87.14
64080;BME280;51042;49.696;10.808;2022-12-18T13:56:09;99769.00;;;-3.31;87.57
64080;BME280;51042;49.696;10.808;2022-12-18T13:58:34;99760.00;;;-3.35;86.76
64080;BME280;51042;49.696;10.808;2022-12-18T14:00:59;99758.06;;;-3.43;87.18
64080;BME280;51042;49.696;10.808;2022-12-18T14:03:27;99765.94;;;-3.47;87.92
64080;BME280;51042;49.696;10.808;2022-12-18T14:05:54;99759.59;;;-3.51;87.72
64080;BME280;51042;49.696;10.808;2022-12-18T14:08:20;99766.25;;;-3.48;88.25